createdAt,value
2019-05-05T00:01:01.104Z,2.50
2019-05-05T00:04:20.535Z,2.37
2019-05-05T00:07:30.800Z,2.55
2019-05-05T00:10:56.969Z,2.49
2019-05-05T00:14:29.249Z,2.60
2019-05-05T00:17:34.432Z,2.49
2019-05-05T00:20:39.617Z,2.45
2019-05-05T00:23:45.189Z,2.26
2019-05-05T00:26:50.625Z,2.28
2019-05-05T00:29:55.887Z,2.11
2019-05-05T00:33:01.044Z,2.20
2019-05-05T00:36:07.833Z,2.25
2019-05-05T00:39:14.994Z,2.03
2019-05-05T00:42:20.461Z,1.88
2019-05-05T00:45:26.254Z,1.93
2019-05-05T00:48:37.443Z,1.86
2019-05-05T00:51:44.339Z,2.11
2019-05-05T00:54:49.472Z,2.23
2019-05-05T00:57:54.925Z,2.06
2019-05-05T01:01:17.762Z,1.92
2019-05-05T01:04:28.874Z,1.82
2019-05-05T01:07:35.085Z,1.64
2019-05-05T01:10:40.409Z,1.61
2019-05-05T01:13:45.685Z,1.69
2019-05-05T01:16:50.934Z,1.77
2019-05-05T01:20:03.423Z,1.77
2019-05-05T01:23:04.423Z,1.70
2019-05-05T01:26:09.818Z,1.50
2019-05-05T01:29:15.029Z,1.49
2019-05-05T01:32:25.668Z,1.60
2019-05-05T01:35:30.795Z,1.64
2019-05-05T01:38:44.817Z,1.84
2019-05-05T01:41:54.294Z,1.77
2019-05-05T01:44:59.550Z,1.70
2019-05-05T01:48:04.984Z,1.76
2019-05-05T01:51:10.228Z,1.63
2019-05-05T01:54:15.399Z,1.96
2019-05-05T01:57:20.622Z,2.01
2019-05-05T02:00:25.825Z,2.08
2019-05-05T02:03:31.307Z,1.96
2019-05-05T02:06:36.420Z,1.98
2019-05-05T02:09:41.490Z,1.96
2019-05-05T02:12:46.650Z,2.12
2019-05-05T02:15:51.805Z,2.56
2019-05-05T02:18:56.964Z,2.73
2019-05-05T02:22:02.195Z,2.72
2019-05-05T02:25:07.594Z,2.56
2019-05-05T02:28:14.774Z,2.49
2019-05-05T02:31:47.910Z,2.52
2019-05-05T02:34:57.303Z,2.73
2019-05-05T02:38:02.425Z,2.80
2019-05-05T02:41:08.616Z,2.73
2019-05-05T02:44:15.473Z,2.76
2019-05-05T02:47:34.833Z,2.74
2019-05-05T02:51:01.779Z,2.72
2019-05-05T02:54:05.275Z,2.71
2019-05-05T02:57:13.480Z,2.83
2019-05-05T03:00:36.713Z,2.96
2019-05-05T03:03:43.806Z,3.18
2019-05-05T03:06:51.526Z,3.21
2019-05-05T03:09:57.694Z,3.25
2019-05-05T03:13:04.922Z,3.26
2019-05-05T03:16:18.897Z,3.26
2019-05-05T03:19:25.264Z,3.28
2019-05-05T03:22:31.110Z,3.25
2019-05-05T03:25:37.234Z,3.16
2019-05-05T03:28:46.214Z,3.11
2019-05-05T03:31:51.533Z,3.08
2019-05-05T03:34:56.773Z,2.85
2019-05-05T03:38:03.767Z,2.72
2019-05-05T03:41:13.597Z,2.59
2019-05-05T03:44:24.135Z,2.42
2019-05-05T03:47:29.829Z,2.52
2019-05-05T03:50:34.973Z,2.49
2019-05-05T03:53:40.325Z,2.54
2019-05-05T03:56:45.973Z,2.58
2019-05-05T03:59:52.259Z,2.58
2019-05-05T04:03:04.218Z,2.51
2019-05-05T04:06:09.549Z,2.41
2019-05-05T04:09:14.694Z,2.35
2019-05-05T04:12:19.797Z,2.24
2019-05-05T04:15:24.955Z,2.28
2019-05-05T04:18:31.282Z,2.59
2019-05-05T04:21:36.895Z,3.41
2019-05-05T04:24:43.674Z,4.39
2019-05-05T04:27:48.902Z,5.10
2019-05-05T04:30:54.130Z,5.77
2019-05-05T04:34:00.391Z,6.68
2019-05-05T04:37:05.617Z,7.07
2019-05-05T04:40:11.265Z,8.07
2019-05-05T04:43:16.503Z,8.22
2019-05-05T04:46:21.665Z,8.01
2019-05-05T04:49:40.363Z,8.34
2019-05-05T04:52:45.514Z,8.66
2019-05-05T04:55:54.894Z,9.02
2019-05-05T04:59:00.053Z,9.60
2019-05-05T05:02:11.434Z,10.29
2019-05-05T05:05:26.876Z,10.22
2019-05-05T05:08:33.685Z,9.06
2019-05-05T05:11:38.971Z,8.77
2019-05-05T05:14:44.222Z,9.62
2019-05-05T05:17:55.864Z,10.20
2019-05-05T05:21:00.972Z,9.93
2019-05-05T05:24:06.060Z,10.66
2019-05-05T05:27:11.400Z,9.01
2019-05-05T05:30:16.700Z,8.18
2019-05-05T05:33:23.733Z,8.39
2019-05-05T05:36:28.628Z,8.55
2019-05-05T05:39:39.902Z,9.49
2019-05-05T05:42:44.996Z,10.75
2019-05-05T05:45:56.621Z,11.40
2019-05-05T05:49:24.315Z,10.86
2019-05-05T05:52:29.651Z,11.17
2019-05-05T05:55:34.899Z,11.14
2019-05-05T05:58:40.068Z,11.29
2019-05-05T06:02:09.714Z,10.53
2019-05-05T06:05:10.785Z,10.72
2019-05-05T06:08:18.894Z,11.86
2019-05-05T06:11:24.091Z,11.82
2019-05-05T06:14:29.336Z,12.87
2019-05-05T06:17:34.563Z,12.34
2019-05-05T06:20:39.858Z,12.14
2019-05-05T06:23:45.005Z,12.56
2019-05-05T06:26:50.153Z,12.93
2019-05-05T06:29:55.348Z,13.02
2019-05-05T06:33:00.560Z,13.76
2019-05-05T06:36:05.706Z,14.19
2019-05-05T06:39:13.958Z,15.32
2019-05-05T06:42:44.095Z,13.62
2019-05-05T06:45:54.000Z,12.73
2019-05-05T06:48:59.116Z,12.19
2019-05-05T06:52:04.459Z,11.23
2019-05-05T06:55:09.696Z,9.61
2019-05-05T06:58:15.915Z,11.08
2019-05-05T07:01:21.070Z,11.07
2019-05-05T07:04:26.230Z,11.55
2019-05-05T07:07:31.400Z,11.09
2019-05-05T07:10:36.811Z,10.68
2019-05-05T07:13:44.156Z,9.04
2019-05-05T07:16:48.840Z,9.51
2019-05-05T07:19:54.424Z,10.84
2019-05-05T07:23:03.046Z,11.05
2019-05-05T07:26:06.605Z,9.99
2019-05-05T07:29:11.740Z,10.13
2019-05-05T07:32:16.908Z,10.78
2019-05-05T07:35:28.574Z,10.48
2019-05-05T07:38:33.864Z,9.60
2019-05-05T07:41:40.703Z,9.91
2019-05-05T07:44:45.985Z,10.72
2019-05-05T07:47:51.233Z,11.30
2019-05-05T07:51:01.991Z,11.53
2019-05-05T07:54:03.817Z,9.98
2019-05-05T07:57:09.181Z,9.70
2019-05-05T08:00:14.922Z,10.63
2019-05-05T08:03:20.193Z,11.33
2019-05-05T08:06:25.395Z,10.80
2019-05-05T08:09:30.589Z,9.67
2019-05-05T08:12:35.816Z,11.04
2019-05-05T08:15:56.695Z,11.66
2019-05-05T08:19:09.161Z,11.74
2019-05-05T08:22:14.390Z,11.36
2019-05-05T08:25:40.652Z,10.96
2019-05-05T08:29:04.800Z,11.44
2019-05-05T08:32:26.159Z,10.81
2019-05-05T08:35:34.408Z,11.59
2019-05-05T08:38:39.785Z,11.05
2019-05-05T08:41:47.287Z,10.80
2019-05-05T08:44:53.732Z,10.09
2019-05-05T08:47:58.600Z,9.35
2019-05-05T08:51:04.829Z,9.24
2019-05-05T08:54:10.285Z,9.32
2019-05-05T08:57:15.495Z,9.71
2019-05-05T09:00:20.874Z,9.64
2019-05-05T09:03:26.010Z,9.80
2019-05-05T09:06:31.134Z,10.13
2019-05-05T09:09:36.386Z,10.21
2019-05-05T09:12:43.588Z,10.19
2019-05-05T09:15:48.466Z,10.57
2019-05-05T09:19:06.104Z,11.39
2019-05-05T09:22:11.268Z,11.44
2019-05-05T09:25:39.331Z,11.48
2019-05-05T09:29:13.643Z,12.15
2019-05-05T09:32:16.474Z,11.28
2019-05-05T09:35:24.087Z,11.75
2019-05-05T09:38:30.335Z,11.91
2019-05-05T09:41:35.679Z,11.05
2019-05-05T09:44:40.907Z,12.02
2019-05-05T09:47:46.057Z,11.91
2019-05-05T09:50:51.318Z,11.73
2019-05-05T09:53:56.539Z,11.02
2019-05-05T09:57:01.807Z,11.01
2019-05-05T10:00:11.011Z,10.46
2019-05-05T10:03:16.386Z,11.30
2019-05-05T10:06:21.549Z,10.89
2019-05-05T10:09:26.692Z,11.13
2019-05-05T10:12:33.842Z,10.98
2019-05-05T10:15:41.241Z,10.99
2019-05-05T10:18:46.468Z,11.77
2019-05-05T10:21:51.671Z,11.83
2019-05-05T10:25:15.751Z,11.81
2019-05-05T10:28:21.064Z,12.04
2019-05-05T10:31:26.292Z,12.33
2019-05-05T10:34:33.425Z,12.17
2019-05-05T10:37:38.308Z,11.77
2019-05-05T10:40:44.610Z,12.10
2019-05-05T10:43:50.924Z,11.91
2019-05-05T10:46:56.093Z,11.57
2019-05-05T10:50:01.267Z,11.20
2019-05-05T10:53:06.458Z,10.42
2019-05-05T10:56:13.541Z,9.98
2019-05-05T10:59:19.449Z,9.88
2019-05-05T11:02:24.642Z,9.94
2019-05-05T11:05:30.100Z,10.73
2019-05-05T11:08:35.995Z,11.25
2019-05-05T11:11:41.270Z,11.72
2019-05-05T11:14:46.406Z,11.85
2019-05-05T11:17:54.321Z,11.46
2019-05-05T11:20:59.610Z,11.56
2019-05-05T11:24:04.872Z,11.96
2019-05-05T11:27:10.063Z,11.56
2019-05-05T11:30:21.391Z,12.33
2019-05-05T11:33:48.305Z,11.90
2019-05-05T11:37:00.289Z,11.85
2019-05-05T11:40:05.735Z,11.86
2019-05-05T11:43:10.921Z,12.04
2019-05-05T11:46:16.080Z,11.93
2019-05-05T11:49:21.324Z,11.15
2019-05-05T11:52:26.601Z,11.46
2019-05-05T11:55:33.551Z,11.59
2019-05-05T11:58:38.855Z,11.78
2019-05-05T12:01:44.251Z,12.40
2019-05-05T12:04:49.617Z,12.88
2019-05-05T12:07:54.739Z,13.66
2019-05-05T12:11:04.476Z,12.94
2019-05-05T12:14:11.217Z,13.03
2019-05-05T12:17:19.525Z,13.34
2019-05-05T12:20:33.748Z,12.07
2019-05-05T12:23:39.107Z,12.29
2019-05-05T12:26:54.234Z,11.45
2019-05-05T12:30:08.199Z,11.58
2019-05-05T12:33:13.860Z,11.82
2019-05-05T12:36:19.055Z,12.38
2019-05-05T12:39:24.244Z,12.95
2019-05-05T12:42:29.440Z,13.19
2019-05-05T12:45:36.167Z,13.40
2019-05-05T12:48:43.897Z,13.34
2019-05-05T12:51:49.150Z,12.05
2019-05-05T12:54:54.657Z,12.34
2019-05-05T12:57:59.889Z,12.42
2019-05-05T13:01:14.171Z,11.73
2019-05-05T13:04:19.060Z,12.41
2019-05-05T13:07:24.433Z,12.47
2019-05-05T13:10:29.902Z,12.18
2019-05-05T13:13:35.142Z,12.22
2019-05-05T13:16:52.068Z,12.10
2019-05-05T13:19:55.124Z,11.63
2019-05-05T13:23:19.335Z,11.92
2019-05-05T13:26:49.496Z,11.87
2019-05-05T13:29:54.728Z,12.32
2019-05-05T13:33:03.560Z,12.43
2019-05-05T13:36:08.492Z,11.93
2019-05-05T13:39:14.390Z,11.84
2019-05-05T13:42:20.011Z,11.96
2019-05-05T13:45:47.270Z,11.66
2019-05-05T13:48:53.913Z,11.37
2019-05-05T13:52:04.602Z,11.00
2019-05-05T13:55:11.056Z,10.87
2019-05-05T13:58:16.327Z,10.60
2019-05-05T14:01:23.542Z,10.75
2019-05-05T14:04:28.387Z,10.67
2019-05-05T14:07:34.296Z,10.65
2019-05-05T14:10:39.918Z,10.75
2019-05-05T14:13:48.295Z,10.66
2019-05-05T14:16:53.801Z,10.55
2019-05-05T14:20:04.659Z,10.79
2019-05-05T14:23:06.127Z,10.81
2019-05-05T14:26:24.999Z,10.51
2019-05-05T14:29:38.798Z,10.75
2019-05-05T14:32:44.588Z,10.66
2019-05-05T14:36:15.421Z,11.03
2019-05-05T14:39:21.290Z,10.72
2019-05-05T14:42:26.663Z,10.60
2019-05-05T14:45:33.884Z,11.08
2019-05-05T14:48:38.692Z,11.20
2019-05-05T14:51:48.870Z,10.87
2019-05-05T14:54:54.556Z,10.80
2019-05-05T14:58:01.055Z,11.25
2019-05-05T15:01:06.297Z,11.07
2019-05-05T15:04:13.385Z,11.23
2019-05-05T15:07:33.905Z,11.73
2019-05-05T15:10:54.768Z,12.50
2019-05-05T15:14:00.102Z,12.90
2019-05-05T15:17:05.367Z,12.35
2019-05-05T15:20:11.137Z,12.08
2019-05-05T15:23:16.462Z,12.06
2019-05-05T15:26:23.796Z,12.34
2019-05-05T15:29:29.252Z,12.02
2019-05-05T15:32:34.645Z,12.02
2019-05-05T15:35:39.846Z,12.08
2019-05-05T15:38:45.056Z,11.44
2019-05-05T15:41:50.266Z,11.32
2019-05-05T15:44:55.407Z,11.12
2019-05-05T15:48:00.539Z,10.94
2019-05-05T15:51:05.852Z,10.70
2019-05-05T15:54:11.068Z,10.38
2019-05-05T15:57:18.046Z,10.53
2019-05-05T16:00:23.228Z,10.29
2019-05-05T16:03:30.072Z,10.53
2019-05-05T16:06:35.841Z,10.45
2019-05-05T16:09:40.970Z,10.53
2019-05-05T16:12:46.157Z,10.51
2019-05-05T16:16:11.005Z,10.64
2019-05-05T16:19:34.026Z,10.69
2019-05-05T16:22:59.127Z,10.92
2019-05-05T16:26:04.409Z,11.51
2019-05-05T16:29:09.631Z,11.92
2019-05-05T16:32:21.666Z,12.00
2019-05-05T16:35:23.650Z,12.20
2019-05-05T16:38:28.586Z,12.07
2019-05-05T16:41:34.126Z,11.98
2019-05-05T16:44:40.488Z,12.02
2019-05-05T16:47:45.756Z,11.90
2019-05-05T16:50:50.963Z,12.04
2019-05-05T16:53:57.702Z,11.70
2019-05-05T16:57:03.996Z,11.52
2019-05-05T17:00:09.828Z,11.46
2019-05-05T17:03:15.276Z,11.61
2019-05-05T17:06:20.489Z,11.29
2019-05-05T17:09:25.722Z,11.05
2019-05-05T17:12:38.961Z,10.73
2019-05-05T17:16:07.631Z,10.54
2019-05-05T17:19:22.073Z,10.36
2019-05-05T17:22:34.033Z,10.16
2019-05-05T17:25:39.506Z,10.15
2019-05-05T17:28:44.743Z,10.20
2019-05-05T17:31:49.908Z,9.88
2019-05-05T17:34:55.114Z,9.85
2019-05-05T17:38:13.832Z,9.81
2019-05-05T17:41:31.168Z,9.65
2019-05-05T17:44:56.152Z,9.40
2019-05-05T17:48:08.308Z,9.18
2019-05-05T17:51:20.651Z,8.97
2019-05-05T17:54:28.853Z,8.88
2019-05-05T17:57:34.549Z,8.66
2019-05-05T18:00:48.408Z,8.50
2019-05-05T18:03:54.479Z,8.37
2019-05-05T18:07:10.640Z,8.22
2019-05-05T18:10:29.640Z,7.98
2019-05-05T18:13:39.745Z,7.78
2019-05-05T18:16:47.044Z,7.71
2019-05-05T18:19:53.576Z,7.61
2019-05-05T18:22:58.952Z,7.49
2019-05-05T18:26:04.223Z,7.32
2019-05-05T18:29:09.448Z,7.20
2019-05-05T18:32:14.622Z,7.04
2019-05-05T18:35:19.787Z,6.89
2019-05-05T18:38:25.009Z,6.74
2019-05-05T18:41:40.964Z,6.61
2019-05-05T18:44:48.557Z,6.54
2019-05-05T18:47:53.926Z,6.53
2019-05-05T18:50:59.487Z,6.53
2019-05-05T18:54:04.802Z,6.44
2019-05-05T18:57:10.049Z,6.29
2019-05-05T19:00:18.719Z,6.28
2019-05-05T19:03:29.058Z,6.24
2019-05-05T19:06:50.337Z,6.12
2019-05-05T19:09:56.962Z,6.05
2019-05-05T19:13:02.412Z,6.00
2019-05-05T19:16:07.691Z,5.78
2019-05-05T19:19:14.289Z,5.74
2019-05-05T19:22:36.173Z,5.82
2019-05-05T19:25:41.506Z,5.79
2019-05-05T19:28:49.931Z,5.69
2019-05-05T19:31:55.117Z,5.56
2019-05-05T19:35:00.436Z,5.65
2019-05-05T19:38:05.799Z,5.68
2019-05-05T19:41:10.948Z,5.50
2019-05-05T19:44:16.183Z,5.54
2019-05-05T19:47:24.281Z,5.47
2019-05-05T19:50:41.296Z,5.67
2019-05-05T19:53:46.631Z,5.49
2019-05-05T19:56:54.084Z,5.47
2019-05-05T19:59:58.908Z,5.41
2019-05-05T20:03:05.080Z,5.32
2019-05-05T20:06:10.544Z,5.43
2019-05-05T20:09:15.762Z,5.52
2019-05-05T20:12:20.987Z,5.54
2019-05-05T20:15:35.013Z,5.71
2019-05-05T20:18:40.204Z,5.83
2019-05-05T20:21:46.418Z,5.76
2019-05-05T20:24:51.837Z,5.80
2019-05-05T20:27:56.999Z,5.61
2019-05-05T20:31:03.702Z,5.43
2019-05-05T20:34:24.317Z,5.40
2019-05-05T20:38:00.661Z,5.34
2019-05-05T20:41:14.251Z,5.36
2019-05-05T20:44:19.781Z,5.37
2019-05-05T20:47:24.967Z,5.36
2019-05-05T20:50:30.173Z,5.33
2019-05-05T20:53:35.442Z,5.22
2019-05-05T20:56:44.357Z,5.28
2019-05-05T20:59:48.844Z,5.25
2019-05-05T21:02:54.032Z,5.27
2019-05-05T21:05:59.181Z,5.28
2019-05-05T21:09:05.765Z,5.18
2019-05-05T21:12:11.064Z,5.12
2019-05-05T21:15:16.310Z,5.12
2019-05-05T21:18:26.393Z,5.08
2019-05-05T21:21:31.083Z,5.08
2019-05-05T21:24:36.273Z,5.15
2019-05-05T21:27:43.527Z,5.12
2019-05-05T21:30:48.418Z,4.96
2019-05-05T21:33:54.771Z,4.81
2019-05-05T21:37:00.298Z,4.68
2019-05-05T21:40:06.093Z,4.68
2019-05-05T21:43:11.242Z,4.73
2019-05-05T21:46:16.452Z,4.65
2019-05-05T21:49:21.698Z,4.64
2019-05-05T21:52:36.194Z,4.51
2019-05-05T21:55:46.413Z,4.51
2019-05-05T21:58:53.582Z,4.59
2019-05-05T22:01:58.574Z,4.57
2019-05-05T22:05:04.176Z,4.54
2019-05-05T22:08:10.958Z,4.53
2019-05-05T22:11:16.128Z,4.57
2019-05-05T22:14:21.259Z,4.53
2019-05-05T22:17:26.430Z,4.51
2019-05-05T22:20:39.968Z,4.59
2019-05-05T22:24:04.045Z,4.54
2019-05-05T22:27:09.188Z,4.48
2019-05-05T22:30:14.662Z,4.52
2019-05-05T22:33:19.802Z,4.53
2019-05-05T22:36:25.968Z,4.45
2019-05-05T22:39:31.103Z,4.38
2019-05-05T22:42:36.220Z,4.31
2019-05-05T22:45:41.427Z,4.28
2019-05-05T22:48:46.549Z,4.19
2019-05-05T22:51:51.673Z,4.23
2019-05-05T22:54:57.009Z,4.34
2019-05-05T22:58:04.022Z,4.36
2019-05-05T23:01:09.003Z,4.38
2019-05-05T23:04:43.713Z,4.39
2019-05-05T23:07:55.296Z,4.41
2019-05-05T23:11:00.564Z,4.42
2019-05-05T23:14:24.754Z,4.31
2019-05-05T23:17:43.789Z,4.08
2019-05-05T23:21:02.204Z,4.18
2019-05-05T23:24:23.776Z,4.10
2019-05-05T23:27:47.913Z,4.10
2019-05-05T23:30:54.749Z,4.32
2019-05-05T23:34:00.073Z,4.23
2019-05-05T23:37:05.195Z,4.16
2019-05-05T23:40:11.063Z,4.30
2019-05-05T23:43:16.192Z,4.19
2019-05-05T23:46:21.399Z,4.03
2019-05-05T23:49:26.710Z,3.87
2019-05-05T23:52:31.893Z,3.87
2019-05-05T23:55:37.034Z,3.77
2019-05-05T23:58:44.116Z,3.92
